Destrehan, Louisiana
Current Conditions -  °F | °C
As of 10:53 AM on Sunday 21 Dec 2014 (Local Time) from KMSY Reporting Station
Overcast Overcast  
Wind Chill: 56°   Ceiling: 1200
Heat Index: 56°   Visibility: 8mi
Dew Point: 49°   Wind: 0mph
Humidity: 77%   Direction: NA
Pressure: 30.12"   Gusts: NA
Location:  29.95°N, 90.39°W
Report Text: KMSY 211653Z 00000KT 8SM OVC012 13/09 A3012 RMK AO2 SLP201 T01330094
Loading
Personal Weather Stations






























Interactive Weather Map New forecast layout! Learn more

10-Day Weather Forecast

Advertisements
Track Severe Weather on mobile